< Cyclone 202012 2021 Season Cyclone 202105 >
Cyclone 202102 (noname)
General InformationDetailed Track InformationTrack Information on Google Maps || ResourceGoogle EarthGE AnimationAtom FeedGeoJSON
Year Month Day Hour Lat. Long. Wind (kt) Gust (kt) Direc. of Major Storm Axis Radius of Major Storm Axis (nm) Radius of Minor Storm Axis (nm) Direc. of Major Gale Axis Radius of Major Gale Axis (nm) Radius of Minor Gale Axis (nm) Image
2020 12 4 06 -8.4 105.7 20 45 symmetric - - symmetric - - Image
2020 12 4 12 -8.4 105.8 20 45 symmetric - - symmetric - - Image
2020 12 5 18 -8.6 106.2 20 45 symmetric - - symmetric - - Image
2020 12 6 00 -8.5 106.2 25 45 symmetric - - symmetric - - Image
2020 12 6 06 -8.9 107.1 30 45 symmetric - - symmetric - - Image
2020 12 6 12 -9.5 107.7 30 45 symmetric - - symmetric - - Image
2020 12 6 18 -10.0 108.3 30 45 symmetric - - symmetric - - Image
2020 12 7 00 -10.0 108.1 30 45 symmetric - - symmetric - - Image
2020 12 7 06 -10.3 108.1 30 45 symmetric - - symmetric - - Image
2020 12 7 12 -10.6 108.2 30 45 symmetric - - symmetric - - Image
2020 12 7 18 -10.9 108.2 30 45 symmetric - - symmetric - - Image
2020 12 8 00 -11.1 107.7 30 45 symmetric - - symmetric - - Image
2020 12 8 06 -11.1 107.6 30 45 symmetric - - symmetric - - Image
2020 12 8 12 -10.9 108.1 35 50 symmetric - - symmetric - - Image
2020 12 8 18 -10.8 108.6 40 55 symmetric - - symmetric - - Image
2020 12 9 00 -11.0 109.1 40 55 symmetric - - symmetric - - Image
2020 12 9 06 -11.5 109.9 40 55 symmetric - - symmetric - - Image
2020 12 9 12 -12.3 110.7 40 55 symmetric - - symmetric - - Image
2020 12 9 18 -13.2 111.0 35 50 symmetric - - symmetric - - Image
2020 12 10 00 -14.1 111.5 35 50 symmetric - - symmetric - - Image
2020 12 10 06 -14.6 112.4 30 45 symmetric - - symmetric - - Image
2020 12 10 12 -15.5 113.9 30 45 symmetric - - symmetric - - Image
2020 12 10 18 -16.8 115.5 35 50 symmetric - - symmetric - - Image
2020 12 11 00 -19.3 117.1 45 65 symmetric - - symmetric - - Image
2020 12 11 03 -20.3 118.2 40 55 symmetric - - symmetric - - Image
2020 12 11 06 -21.1 119.1 30 45 symmetric - - symmetric - - Image
< Cyclone 202012 2021 Season Cyclone 202105 >

Help